Time;durP1;ratioP1;P1;durP2;ratioP2;P2;SDS_P1;SDS_P2;PMS_P1;PMS_P2;Temp;Humidity;BMP_temperature;BMP_pressure;BME280_temperature;BME280_humidity;BME280_pressure;Samples;Min_cycle;Max_cycle;Signal;HPM_P1;HPM_P2
2021/06/14 00:00:30;;;;;;;6.30;3.25;;;;;;;23.04;38.34;101598.72;4917376;29;20058;-71
2021/06/14 00:02:57;;;;;;;7.72;3.63;;;;;;;23.01;38.40;101599.47;4918461;29;20056;-72
2021/06/14 00:05:39;;;;;;;7.00;3.28;;;;;;;23.03;38.61;101605.53;4918357;29;20063;-73
2021/06/14 00:08:12;;;;;;;6.57;3.03;;;;;;;23.08;38.24;101600.38;4917185;29;20051;-70
2021/06/14 00:10:41;;;;;;;5.88;2.88;;;;;;;22.90;39.04;101604.91;4901931;29;20048;-65
2021/06/14 00:13:09;;;;;;;6.20;3.13;;;;;;;22.55;39.63;101598.66;4902330;29;20139;-67
2021/06/14 00:15:38;;;;;;;7.40;2.85;;;;;;;22.63;39.56;101608.03;4887096;29;20067;-67
2021/06/14 00:18:06;;;;;;;6.28;3.33;;;;;;;22.69;39.76;101607.34;4901532;29;20052;-67
2021/06/14 00:20:35;;;;;;;7.50;3.10;;;;;;;22.64;39.88;101604.84;4882555;29;20073;-65
2021/06/14 00:23:08;;;;;;;7.68;3.35;;;;;;;22.79;39.68;101611.50;4840200;29;20065;-65
2021/06/14 00:25:36;;;;;;;6.05;2.92;;;;;;;22.56;40.55;101619.94;4839342;29;20050;-66
2021/06/14 00:28:04;;;;;;;6.90;2.97;;;;;;;22.14;41.42;101611.44;4887813;29;20054;-66
2021/06/14 00:30:37;;;;;;;7.30;2.88;;;;;;;21.97;42.02;101613.88;4840924;29;20065;-68
2021/06/14 00:33:05;;;;;;;8.43;2.97;;;;;;;22.08;41.89;101612.94;4840079;29;20058;-77
2021/06/14 00:35:33;;;;;;;6.65;2.65;;;;;;;21.87;42.77;101623.72;4903340;29;20105;-67
2021/06/14 00:38:01;;;;;;;6.72;3.03;;;;;;;21.99;42.77;101612.34;4842445;29;20066;-71
2021/06/14 00:40:30;;;;;;;7.47;3.50;;;;;;;22.00;42.80;101618.78;4839500;29;20061;-70
2021/06/14 00:42:59;;;;;;;5.35;2.95;;;;;;;21.89;43.12;101614.94;4841643;29;20054;-68
2021/06/14 00:45:30;;;;;;;7.10;3.05;;;;;;;21.65;44.00;101615.16;4904096;29;20065;-66
2021/06/14 00:48:00;;;;;;;5.68;3.00;;;;;;;21.62;43.93;101615.91;4840303;29;20053;-77
2021/06/14 00:50:40;;;;;;;11.90;3.45;;;;;;;21.73;43.73;101617.75;4839013;29;20050;-75
2021/06/14 00:53:10;;;;;;;7.20;2.88;;;;;;;21.44;44.85;101620.28;4903484;29;20054;-73
2021/06/14 00:55:40;;;;;;;11.05;3.10;;;;;;;21.30;44.96;101617.97;4871694;29;20553;-66
2021/06/14 00:58:08;;;;;;;9.00;3.45;;;;;;;21.51;44.95;101612.84;4824454;29;20422;-69
2021/06/14 01:00:36;;;;;;;8.18;3.00;;;;;;;21.43;45.10;101613.84;4840261;29;20050;-68
2021/06/14 01:03:05;;;;;;;11.05;3.03;;;;;;;21.45;44.94;101611.50;4824330;29;20050;-66
2021/06/14 01:05:36;;;;;;;7.55;3.17;;;;;;;21.48;45.28;101607.16;4841891;29;20160;-71
2021/06/14 01:08:07;;;;;;;8.20;3.33;;;;;;;21.62;45.00;101616.69;4824870;29;20398;-66
2021/06/14 01:10:35;;;;;;;;;;;;;;;21.57;45.16;101619.78;4839970;29;20395;-66
2021/06/14 01:13:26;;;;;;;11.80;3.70;;;;;;;21.48;45.36;101607.16;4838958;29;19926;-69
2021/06/14 01:16:11;;;;;;;6.80;3.28;;;;;;;21.50;45.80;101616.00;4832354;29;20394;-65
2021/06/14 01:23:37;;;;;;;7.32;3.20;;;;;;;21.52;46.30;101608.03;4917076;29;20052;-70
2021/06/14 01:26:12;;;;;;;9.02;3.15;;;;;;;21.17;46.95;101605.22;4900234;29;20064;-68
2021/06/14 01:28:42;;;;;;;7.60;3.20;;;;;;;21.09;47.28;101612.66;4915940;29;20052;-66
2021/06/14 01:31:15;;;;;;;9.05;3.45;;;;;;;20.96;47.95;101602.69;4886196;29;20048;-66
2021/06/14 01:38:22;;;;;;;6.80;3.10;;;;;;;21.51;46.70;101582.03;4917030;29;20060;-70
2021/06/14 01:40:56;;;;;;;11.00;3.72;;;;;;;21.09;47.81;101581.03;4917028;29;20460;-78
2021/06/14 01:43:27;;;;;;;8.05;3.67;;;;;;;21.32;47.37;101576.38;4900082;29;20059;-72
2021/06/14 01:45:59;;;;;;;6.55;3.55;;;;;;;21.39;47.01;101575.72;4900661;29;20063;-66
2021/06/14 01:48:27;;;;;;;7.30;3.42;;;;;;;21.15;47.70;101573.94;4900688;29;20055;-66
2021/06/14 01:50:55;;;;;;;8.32;3.38;;;;;;;21.03;48.34;101569.28;4916642;29;20063;-74
2021/06/14 01:53:35;;;;;;;8.70;3.42;;;;;;;20.89;48.47;101568.88;4884732;29;20063;-65
2021/06/14 01:56:58;;;;;;;9.90;4.00;;;;;;;20.91;48.91;101557.31;4903564;29;20052;-73
2021/06/14 02:00:40;;;;;;;7.88;3.80;;;;;;;20.82;49.41;101565.09;4821979;29;20058;-69
2021/06/14 02:07:34;;;;;;;7.07;3.47;;;;;;;20.46;50.32;101563.38;4916368;29;20055;-66
2021/06/14 02:10:04;;;;;;;11.85;3.72;;;;;;;20.31;50.98;101557.75;4898977;29;20067;-73
2021/06/14 02:12:32;;;;;;;9.13;3.53;;;;;;;20.46;50.99;101554.16;4915715;29;20059;-68
2021/06/14 02:15:00;;;;;;;6.97;3.67;;;;;;;20.67;49.75;101544.34;4884107;29;20058;-68
2021/06/14 02:17:30;;;;;;;7.65;3.33;;;;;;;20.60;49.99;101541.34;4884069;29;20059;-66
2021/06/14 02:19:59;;;;;;;11.43;3.60;;;;;;;20.53;50.50;101540.34;4884063;29;20048;-68
2021/06/14 02:22:34;;;;;;;6.53;3.42;;;;;;;20.48;50.58;101540.63;4900465;29;20054;-69
2021/06/14 02:25:04;;;;;;;7.57;3.45;;;;;;;20.60;50.28;101530.16;4901503;29;20108;-74
2021/06/14 02:27:32;;;;;;;10.07;3.80;;;;;;;20.38;51.12;101535.56;4839275;29;20058;-66
2021/06/14 02:30:00;;;;;;;7.55;3.22;;;;;;;20.31;51.21;101524.97;4839601;29;20061;-66
2021/06/14 02:32:27;;;;;;;7.43;3.58;;;;;;;20.38;50.90;101525.16;4887128;29;20061;-67
2021/06/14 02:34:56;;;;;;;7.50;3.55;;;;;;;20.55;50.58;101522.03;4838205;29;20058;-72
2021/06/14 02:37:24;;;;;;;8.15;3.78;;;;;;;20.75;49.95;101518.13;4838884;29;20386;-72
2021/06/14 02:39:52;;;;;;;9.07;3.70;;;;;;;20.71;50.17;101520.03;4901865;29;20058;-67
2021/06/14 02:42:20;;;;;;;7.88;3.80;;;;;;;20.70;50.22;101520.38;4836865;29;20065;-69
2021/06/14 02:44:48;;;;;;;12.07;3.80;;;;;;;20.42;50.94;101514.88;4823541;29;20054;-69
2021/06/14 02:47:17;;;;;;;7.43;3.50;;;;;;;20.34;50.97;101527.06;4837769;29;20053;-66
2021/06/14 02:49:47;;;;;;;6.82;3.50;;;;;;;20.57;50.55;101524.47;4838053;29;20062;-75
2021/06/14 02:52:16;;;;;;;7.97;3.40;;;;;;;20.69;50.05;101514.00;4836842;29;20402;-69
2021/06/14 02:54:52;;;;;;;9.18;3.67;;;;;;;20.64;50.29;101510.66;4839242;29;20498;-69
2021/06/14 02:57:20;;;;;;;7.13;3.53;;;;;;;20.43;50.72;101524.09;4837734;29;20057;-74
2021/06/14 02:59:50;;;;;;;8.93;3.63;;;;;;;20.45;51.20;101518.97;4886795;29;20057;-71
2021/06/14 03:02:21;;;;;;;7.63;3.78;;;;;;;20.46;50.97;101512.19;4809265;29;20058;-78
2021/06/14 03:04:50;;;;;;;7.05;3.60;;;;;;;20.21;51.39;101514.31;4838443;29;20478;-75
2021/06/14 03:07:22;;;;;;;7.78;3.45;;;;;;;20.31;51.24;101524.19;4823198;29;20054;-76
2021/06/14 03:09:51;;;;;;;6.22;3.45;;;;;;;20.42;51.17;101522.47;4886762;29;20054;-78
2021/06/14 03:12:19;;;;;;;8.88;3.33;;;;;;;20.56;50.79;101514.44;4901328;29;20058;-76
2021/06/14 03:14:50;;;;;;;8.43;3.78;;;;;;;20.06;52.04;101526.28;4837016;29;20054;-66
2021/06/14 03:17:18;;;;;;;8.05;3.75;;;;;;;20.06;52.12;101521.50;4823571;29;20061;-65
2021/06/14 03:19:47;;;;;;;6.20;3.60;;;;;;;19.87;52.92;101528.94;4885226;29;20054;-68
2021/06/14 03:22:15;;;;;;;8.30;3.45;;;;;;;19.82;53.10;101524.38;4886131;29;20073;-68
2021/06/14 03:24:43;;;;;;;6.70;3.70;;;;;;;19.67;54.05;101519.56;4823543;29;20054;-69
2021/06/14 03:27:15;;;;;;;8.07;3.90;;;;;;;19.94;53.29;101515.97;4822283;29;20053;-70
2021/06/14 03:29:44;;;;;;;7.93;4.13;;;;;;;19.85;53.39;101514.50;4837261;29;20061;-65
2021/06/14 03:32:12;;;;;;;9.10;3.67;;;;;;;20.10;52.97;101516.78;4901373;29;20403;-73
2021/06/14 03:34:40;;;;;;;8.77;3.35;;;;;;;20.31;52.01;101521.38;4838065;29;20183;-73
2021/06/14 03:37:08;;;;;;;8.60;3.78;;;;;;;20.21;52.68;101527.50;4837272;29;20050;-68
2021/06/14 03:39:39;;;;;;;6.30;3.33;;;;;;;20.22;52.48;101524.34;4836899;29;20406;-76
2021/06/14 03:42:07;;;;;;;10.00;3.25;;;;;;;20.15;52.85;101530.50;4836863;29;20081;-70
2021/06/14 03:44:35;;;;;;;7.68;4.03;;;;;;;19.89;53.40;101532.19;4838263;29;20057;-66
2021/06/14 03:47:03;;;;;;;9.02;4.00;;;;;;;19.56;54.42;101543.59;4838112;29;20398;-63
2021/06/14 03:49:31;;;;;;;8.82;3.55;;;;;;;19.80;54.18;101540.72;4838167;29;20054;-72
2021/06/14 03:51:59;;;;;;;8.05;3.78;;;;;;;19.68;54.31;101540.75;4885185;29;20057;-68
2021/06/14 03:54:27;;;;;;;8.15;3.70;;;;;;;19.79;54.21;101536.28;4838594;29;20057;-75
2021/06/14 03:56:54;;;;;;;7.60;4.13;;;;;;;19.96;53.92;101543.56;4838016;29;20061;-66
2021/06/14 03:59:22;;;;;;;9.90;4.00;;;;;;;19.84;54.34;101547.22;4884547;29;20074;-70
2021/06/14 04:01:56;;;;;;;8.90;4.15;;;;;;;19.61;55.27;101539.75;4838268;29;20064;-66
2021/06/14 04:07:40;;;;;;;11.40;4.13;;;;;;;19.41;56.24;101533.16;4875696;29;19932;-68
2021/06/14 04:10:08;;;;;;;8.38;3.80;;;;;;;19.61;55.49;101537.78;4875794;29;20478;-67
2021/06/14 04:12:35;;;;;;;9.35;4.32;;;;;;;19.59;55.58;101531.72;4859289;29;20053;-67
2021/06/14 04:15:05;;;;;;;8.90;4.03;;;;;;;19.49;55.75;101537.78;4859758;29;20093;-65
2021/06/14 04:17:32;;;;;;;10.80;4.25;;;;;;;19.57;55.72;101536.84;4859934;29;20064;-69
2021/06/14 04:20:00;;;;;;;14.77;4.70;;;;;;;19.71;55.36;101536.44;4874878;29;20045;-70
2021/06/14 04:22:27;;;;;;;12.25;4.10;;;;;;;19.25;56.79;101545.41;4874359;29;20073;-65
2021/06/14 04:24:55;;;;;;;8.88;4.00;;;;;;;19.37;56.71;101537.03;4860530;29;20086;-65
2021/06/14 04:27:22;;;;;;;11.55;4.50;;;;;;;19.39;56.89;101543.88;4876084;29;20053;-74
2021/06/14 04:29:50;;;;;;;10.70;3.72;;;;;;;19.48;56.31;101547.34;4859782;29;20049;-74
2021/06/14 04:32:17;;;;;;;11.68;4.20;;;;;;;19.57;56.28;101548.03;4878684;29;20053;-74
2021/06/14 04:34:44;;;;;;;12.82;4.75;;;;;;;19.40;56.66;101558.66;4878918;29;20049;-69
2021/06/14 04:37:12;;;;;;;9.38;4.50;;;;;;;19.12;57.71;101554.94;4863674;29;20549;-72
2021/06/14 04:39:39;;;;;;;12.68;4.50;;;;;;;19.24;57.54;101552.13;4863326;29;20056;-71
2021/06/14 04:42:07;;;;;;;12.73;4.57;;;;;;;19.43;56.80;101564.38;4878029;29;20519;-69
2021/06/14 04:44:35;;;;;;;13.30;4.50;;;;;;;19.29;57.45;101574.25;4848963;29;20054;-68
2021/06/14 04:47:02;;;;;;;11.55;4.40;;;;;;;19.17;57.87;101571.47;4839599;29;20050;-71
2021/06/14 04:49:30;;;;;;;11.05;4.40;;;;;;;19.04;58.24;101574.25;4839505;29;20050;-69
2021/06/14 04:51:57;;;;;;;16.42;4.75;;;;;;;19.15;58.01;101571.00;4841609;29;20061;-77
2021/06/14 04:54:25;;;;;;;10.70;4.55;;;;;;;19.13;58.07;101564.94;4840529;29;20065;-75
2021/06/14 04:56:52;;;;;;;10.57;4.18;;;;;;;19.31;57.64;101567.19;4840539;29;20050;-70
2021/06/14 04:59:21;;;;;;;8.57;4.80;;;;;;;19.18;57.86;101565.53;4903699;29;20057;-73
2021/06/14 05:01:48;;;;;;;12.52;4.90;;;;;;;19.04;58.57;101573.44;4823843;29;20054;-72
2021/06/14 05:04:16;;;;;;;11.50;4.40;;;;;;;19.18;58.19;101578.69;4839397;29;20525;-69
2021/06/14 05:11:12;;;;;;;10.55;4.72;;;;;;;18.80;59.44;101592.97;4840067;29;20410;-65
2021/06/14 05:13:39;;;;;;;8.63;4.60;;;;;;;18.76;59.80;101595.66;4842975;29;20061;-70
2021/06/14 05:16:07;;;;;;;12.60;5.10;;;;;;;18.74;59.85;101597.19;4841125;29;20367;-71
2021/06/14 05:18:34;;;;;;;12.95;4.90;;;;;;;18.94;59.11;101597.06;4841527;29;20418;-69
2021/06/14 05:25:35;;;;;;;12.73;5.10;;;;;;;18.66;60.48;101604.47;4858399;29;20534;-69
2021/06/14 05:28:04;;;;;;;10.57;4.88;;;;;;;18.78;60.10;101604.50;4841450;29;20056;-68
2021/06/14 05:30:32;;;;;;;13.52;5.05;;;;;;;18.90;59.69;101604.50;4842736;29;20417;-69
2021/06/14 05:33:00;;;;;;;11.38;5.18;;;;;;;18.86;59.59;101605.56;4858237;29;20057;-68
2021/06/14 05:40:07;;;;;;;11.48;5.38;;;;;;;18.67;59.63;101592.13;4859425;29;20064;-71
2021/06/14 05:42:35;;;;;;;;;;;;;;;18.75;60.00;101585.66;4858855;29;20053;-66
2021/06/14 05:45:06;;;;;;;12.98;5.15;;;;;;;18.61;60.11;101584.34;4860670;29;19924;-80
2021/06/14 05:47:33;;;;;;;13.10;5.25;;;;;;;19.11;58.41;101579.25;4842182;29;20494;-79
2021/06/14 05:50:03;;;;;;;12.30;5.20;;;;;;;19.17;58.52;101579.84;4844081;29;20069;-74
2021/06/14 05:52:30;;;;;;;9.48;4.57;;;;;;;19.33;58.10;101584.41;4860104;29;20061;-72
2021/06/14 05:54:58;;;;;;;12.10;5.32;;;;;;;19.24;58.11;101580.88;4858199;29;20407;-68
2021/06/14 05:57:26;;;;;;;20.10;5.50;;;;;;;19.30;58.53;101579.50;4842138;29;20065;-65
2021/06/14 05:59:53;;;;;;;14.77;5.45;;;;;;;19.60;57.32;101583.66;4841366;29;20056;-65
2021/06/14 06:02:21;;;;;;;10.57;5.78;;;;;;;19.43;57.70;101591.47;4857850;29;20049;-71
2021/06/14 06:04:48;;;;;;;13.43;5.57;;;;;;;19.82;56.71;101588.69;4827731;29;20054;-70
2021/06/14 06:11:44;;;;;;;19.98;6.20;;;;;;;19.67;57.25;101602.59;4858159;29;20056;-69
2021/06/14 06:14:16;;;;;;;16.52;5.70;;;;;;;19.57;58.20;101603.09;4843443;29;20056;-70
2021/06/14 06:16:47;;;;;;;17.25;6.53;;;;;;;19.80;57.78;101598.63;4827888;29;20054;-71
2021/06/14 06:19:42;;;;;;;16.23;6.13;;;;;;;19.45;58.70;101598.34;4831030;29;20056;-65
2021/06/14 06:26:51;;;;;;;13.52;5.68;;;;;;;19.80;57.41;101599.44;4858710;29;20378;-67
2021/06/14 06:29:19;;;;;;;17.13;6.80;;;;;;;19.87;56.88;101588.47;4826198;29;20060;-68
2021/06/14 06:31:46;;;;;;;13.48;6.40;;;;;;;20.00;56.78;101590.03;4857348;29;20064;-69
2021/06/14 06:34:14;;;;;;;16.45;6.70;;;;;;;20.37;55.64;101587.91;4841352;29;20137;-75
2021/06/14 06:41:20;;;;;;;15.68;6.47;;;;;;;20.69;54.14;101575.59;4858403;29;20057;-71
2021/06/14 06:43:47;;;;;;;12.93;6.43;;;;;;;21.02;52.51;101578.03;4841483;29;20386;-74
2021/06/14 06:46:15;;;;;;;14.48;5.97;;;;;;;20.95;52.94;101581.47;4840860;29;20057;-76
2021/06/14 06:48:42;;;;;;;14.30;5.10;;;;;;;21.54;51.22;101572.88;4857200;29;20054;-70
2021/06/14 06:51:10;;;;;;;9.02;5.43;;;;;;;21.12;51.20;101569.06;4840563;29;20054;-73
2021/06/14 06:53:37;;;;;;;17.73;6.28;;;;;;;21.23;50.98;101573.75;4855794;29;20516;-67
2021/06/14 06:56:05;;;;;;;13.95;5.90;;;;;;;20.99;51.28;101570.38;4857901;29;20053;-67
2021/06/14 06:58:32;;;;;;;14.10;6.20;;;;;;;21.56;50.54;101567.72;4857428;29;20045;-68
2021/06/14 07:01:00;;;;;;;16.50;5.85;;;;;;;21.68;50.24;101567.56;4857027;29;20489;-71
2021/06/14 07:03:28;;;;;;;14.50;6.35;;;;;;;21.87;49.74;101567.63;4857881;29;20390;-67
2021/06/14 07:05:56;;;;;;;13.02;5.53;;;;;;;21.70;48.45;101559.63;4858253;29;20056;-69
2021/06/14 07:08:23;;;;;;;15.65;5.47;;;;;;;21.47;48.71;101561.50;4858326;29;20050;-66
2021/06/14 07:10:51;;;;;;;17.30;5.30;;;;;;;21.50;48.73;101566.34;4857199;29;20045;-67
2021/06/14 07:13:18;;;;;;;15.32;5.72;;;;;;;21.55;48.10;101563.25;4840228;29;20062;-71
2021/06/14 07:15:46;;;;;;;15.75;5.20;;;;;;;21.62;47.28;101560.63;4856852;29;20054;-67
2021/06/14 07:18:13;;;;;;;14.70;5.80;;;;;;;21.36;48.39;101559.63;4858096;29;20045;-72
2021/06/14 07:20:41;;;;;;;16.17;6.40;;;;;;;21.40;48.03;101566.94;4857255;29;20403;-70
2021/06/14 07:23:09;;;;;;;16.48;5.55;;;;;;;21.77;46.84;101551.34;4841657;29;20057;-73
2021/06/14 07:25:37;;;;;;;19.65;5.20;;;;;;;22.20;46.52;101548.25;4855930;29;20509;-74
2021/06/14 07:28:05;;;;;;;16.70;5.32;;;;;;;22.51;45.27;101547.19;4841032;29;20061;-67
2021/06/14 07:30:33;;;;;;;17.75;5.30;;;;;;;22.83;44.57;101550.59;4856297;29;20054;-69
2021/06/14 07:33:02;;;;;;;16.20;5.90;;;;;;;23.25;43.47;101538.03;4841736;29;20359;-72
2021/06/14 07:35:35;;;;;;;17.05;5.28;;;;;;;23.58;42.96;101550.56;4857862;29;20057;-76
2021/06/14 07:42:29;;;;;;;20.05;5.45;;;;;;;23.74;41.40;101557.63;4839489;29;20049;-73
2021/06/14 07:44:56;;;;;;;25.45;5.65;;;;;;;23.88;41.30;101548.53;4856751;29;20167;-80
2021/06/14 07:47:24;;;;;;;26.92;6.45;;;;;;;23.91;40.64;101542.97;4856902;29;20401;-79
2021/06/14 07:49:51;;;;;;;25.98;5.05;;;;;;;24.01;40.67;101541.47;4857482;29;20065;-68
2021/06/14 07:56:48;;;;;;;20.45;5.43;;;;;;;24.56;39.71;101542.47;4840102;29;20505;-67
2021/06/14 07:59:16;;;;;;;19.02;7.03;;;;;;;25.14;38.41;101530.09;4856485;29;20042;-71
2021/06/14 08:01:43;;;;;;;15.30;4.97;;;;;;;24.77;39.05;101537.06;4824866;29;20062;-80
2021/06/14 08:04:11;;;;;;;17.02;5.78;;;;;;;24.81;39.38;101535.88;4840856;29;20057;-67
2021/06/14 08:11:08;;;;;;;24.17;5.07;;;;;;;24.38;40.78;101522.59;4860898;29;20076;-65
2021/06/14 08:13:35;;;;;;;22.52;5.28;;;;;;;24.18;41.42;101524.00;4844718;29;20053;-72
2021/06/14 08:16:13;;;;;;;14.98;5.60;;;;;;;24.55;40.25;101529.59;4846222;29;20054;-67
2021/06/14 08:18:59;;;;;;;26.23;4.88;;;;;;;24.25;40.80;101524.88;4861738;29;20122;-66
2021/06/14 08:21:43;;;;;;;14.13;5.03;;;;;;;24.94;39.31;101523.13;4858982;29;20053;-70
2021/06/14 08:26:57;;;;;;;17.75;4.68;;;;;;;25.29;38.12;101512.09;4844374;29;20053;-66
2021/06/14 08:29:24;;;;;;;15.10;4.50;;;;;;;24.29;39.36;101517.28;4859253;29;20493;-75
2021/06/14 08:31:52;;;;;;;16.40;4.45;;;;;;;24.97;38.35;101513.88;4862115;29;20069;-76
2021/06/14 08:34:19;;;;;;;14.90;4.95;;;;;;;24.69;38.18;101505.19;4849231;29;20061;-77
2021/06/14 08:36:47;;;;;;;23.73;4.93;;;;;;;24.60;38.67;101515.94;4864389;29;20496;-68
2021/06/14 08:39:15;;;;;;;12.27;4.65;;;;;;;24.43;39.25;101506.16;4859233;29;20238;-67
2021/06/14 08:41:45;;;;;;;15.60;4.80;;;;;;;24.40;39.30;101497.66;4859154;29;20497;-65
2021/06/14 08:44:12;;;;;;;;;;;;;;;25.09;38.01;101499.44;4859532;29;20057;-69
2021/06/14 08:46:39;;;;;;;16.85;4.70;;;;;;;25.07;37.86;101496.22;4843538;29;19924;-65
2021/06/14 08:49:07;;;;;;;13.30;3.97;;;;;;;25.03;38.13;101491.75;4841740;29;20060;-70
2021/06/14 08:51:35;;;;;;;14.13;4.22;;;;;;;25.16;37.23;101493.03;4858335;29;20057;-68
2021/06/14 08:54:05;;;;;;;14.23;4.40;;;;;;;25.46;36.89;101496.47;4842454;29;20057;-65
2021/06/14 08:56:33;;;;;;;11.43;4.32;;;;;;;25.88;35.62;101485.34;4859011;29;20064;-69
2021/06/14 08:59:04;;;;;;;17.73;4.53;;;;;;;26.10;35.52;101481.41;4860761;29;20138;-67
2021/06/14 09:01:31;;;;;;;14.02;4.60;;;;;;;25.72;35.66;101470.78;4843165;29;20520;-68
2021/06/14 09:03:59;;;;;;;12.80;4.60;;;;;;;25.74;34.89;101467.56;4828765;29;20525;-69
2021/06/14 09:06:26;;;;;;;19.58;4.35;;;;;;;26.06;34.89;101465.66;4859201;29;20057;-66
2021/06/14 09:13:32;;;;;;;14.80;3.92;;;;;;;25.86;32.78;101462.34;4860216;29;20068;-65
2021/06/14 09:16:10;;;;;;;11.43;3.22;;;;;;;25.49;33.47;101462.63;4859328;29;20053;-67
2021/06/14 09:18:38;;;;;;;10.98;3.58;;;;;;;25.28;33.38;101465.31;4860223;29;20061;-64
2021/06/14 09:21:09;;;;;;;11.73;3.42;;;;;;;24.84;33.78;101461.84;4861375;29;20387;-73
2021/06/14 09:24:01;;;;;;;11.27;3.50;;;;;;;25.31;32.58;101467.38;4860824;29;20138;-70
2021/06/14 09:26:37;;;;;;;11.20;3.38;;;;;;;25.23;31.93;101467.69;4861737;29;20065;-69
2021/06/14 09:29:06;;;;;;;8.30;2.83;;;;;;;25.49;32.00;101470.28;4848410;29;20058;-78
2021/06/14 09:31:41;;;;;;;5.95;2.50;;;;;;;25.61;30.96;101467.13;4863215;29;20528;-74
2021/06/14 09:34:10;;;;;;;11.45;2.70;;;;;;;25.50;31.51;101469.09;4830306;29;20061;-75
2021/06/14 09:36:38;;;;;;;9.80;2.70;;;;;;;25.55;32.04;101466.69;4860422;29;20057;-83
2021/06/14 09:39:08;;;;;;;12.55;3.13;;;;;;;25.19;32.19;101456.41;4843987;29;20046;-72
2021/06/14 09:41:44;;;;;;;8.77;3.20;;;;;;;25.08;32.80;101457.56;4836016;29;20054;-67
2021/06/14 09:44:12;;;;;;;16.42;3.35;;;;;;;25.10;32.84;101455.16;4839006;29;20053;-77
2021/06/14 09:46:40;;;;;;;13.20;3.03;;;;;;;25.41;32.57;101463.00;4851245;29;20046;-81
2021/06/14 09:49:17;;;;;;;10.98;3.30;;;;;;;25.62;31.87;101460.28;4868791;29;20068;-80
2021/06/14 09:51:50;;;;;;;7.90;3.10;;;;;;;25.36;31.79;101460.53;4831353;29;20068;-72
2021/06/14 09:54:32;;;;;;;9.13;3.20;;;;;;;25.48;30.78;101463.84;4864060;29;20062;-70
2021/06/14 09:57:04;;;;;;;10.32;3.03;;;;;;;25.63;29.75;101453.41;4851067;29;20053;-78
2021/06/14 09:59:44;;;;;;;10.32;2.83;;;;;;;25.65;30.69;101458.69;4849473;29;20054;-70
2021/06/14 10:02:18;;;;;;;;;;;;;;;25.46;29.99;101460.59;4823527;29;20057;-73
2021/06/14 10:04:47;;;;;;;8.32;2.67;;;;;;;25.81;29.67;101453.47;4863446;29;19935;-75
2021/06/14 10:11:44;;;;;;;6.13;2.63;;;;;;;25.82;28.96;101447.41;4865039;29;20481;-71
2021/06/14 10:14:11;;;;;;;7.60;3.10;;;;;;;26.11;28.01;101454.78;4867406;29;20057;-80
2021/06/14 10:16:41;;;;;;;8.25;2.75;;;;;;;26.35;27.83;101447.53;4865139;29;20496;-71
2021/06/14 10:19:11;;;;;;;9.15;3.00;;;;;;;26.50;27.77;101452.78;4859641;29;20060;-73
2021/06/14 10:21:40;;;;;;;;;;;;;;;26.38;27.41;101447.53;4861466;29;20057;-67
2021/06/14 10:28:40;;;;;;;6.65;2.30;;;;;;;26.01;27.64;101444.25;4838391;29;20404;-67
2021/06/14 10:31:09;;;;;;;12.75;2.85;;;;;;;25.95;26.94;101450.69;4902102;29;20058;-73
2021/06/14 10:33:38;;;;;;;8.02;2.65;;;;;;;25.95;27.29;101456.31;4916862;29;20044;-68
2021/06/14 10:36:09;;;;;;;7.20;2.20;;;;;;;26.05;25.78;101449.91;4922711;29;20044;-78
2021/06/14 10:43:26;;;;;;;8.85;2.30;;;;;;;26.37;24.58;101448.75;4925605;29;20365;-80
2021/06/14 10:45:55;;;;;;;5.18;2.30;;;;;;;26.47;25.57;101449.97;4924976;29;20052;-70
2021/06/14 10:48:28;;;;;;;7.72;2.50;;;;;;;26.39;26.05;101440.69;4934247;29;20074;-84
2021/06/14 10:51:02;;;;;;;6.88;2.42;;;;;;;26.41;25.95;101443.91;4859487;29;20052;-80
2021/06/14 10:53:32;;;;;;;11.85;2.85;;;;;;;26.61;26.97;101447.13;4923716;29;20056;-84
2021/06/14 10:56:01;;;;;;;12.90;3.08;;;;;;;26.66;26.25;101444.72;4907158;29;20055;-74
2021/06/14 10:58:30;;;;;;;8.63;3.05;;;;;;;26.41;26.59;101441.06;4858481;29;20498;-82
2021/06/14 11:01:11;;;;;;;10.45;2.85;;;;;;;26.51;25.72;101442.31;4910199;29;20052;-80
2021/06/14 11:03:47;;;;;;;5.88;2.55;;;;;;;26.41;26.82;101437.47;4862615;29;20071;-81
2021/06/14 11:06:23;;;;;;;9.30;3.08;;;;;;;26.49;27.30;101436.25;4921605;29;20059;-72
2021/06/14 11:08:58;;;;;;;8.23;2.60;;;;;;;26.81;26.00;101439.88;4908690;29;20052;-67
2021/06/14 11:11:27;;;;;;;8.75;2.80;;;;;;;26.84;25.70;101435.41;4912991;29;20062;-77
2021/06/14 11:13:55;;;;;;;8.25;2.90;;;;;;;26.72;26.03;101436.66;4866408;29;20119;-82
2021/06/14 11:16:23;;;;;;;7.05;2.80;;;;;;;26.75;26.06;101444.31;4925620;29;20052;-75
2021/06/14 11:19:03;;;;;;;5.90;2.78;;;;;;;26.78;26.15;101439.91;4913031;29;20056;-72
2021/06/14 11:21:30;;;;;;;7.28;2.90;;;;;;;27.01;25.33;101426.09;4906686;29;20523;-67
2021/06/14 11:24:09;;;;;;;7.50;2.60;;;;;;;27.04;24.99;101442.25;4902989;29;20056;-66
2021/06/14 11:26:38;;;;;;;7.15;2.80;;;;;;;27.12;24.57;101424.03;4875701;29;20069;-70
2021/06/14 11:29:18;;;;;;;10.65;2.90;;;;;;;27.22;23.83;101426.84;4841178;29;20052;-65
2021/06/14 11:32:00;;;;;;;6.22;2.58;;;;;;;27.26;24.35;101419.16;4906393;29;20069;-68
2021/06/14 11:34:49;;;;;;;7.38;2.75;;;;;;;27.55;24.46;101419.84;4900549;29;20062;-66
2021/06/14 11:37:17;;;;;;;4.07;2.10;;;;;;;27.13;23.71;101428.50;4822784;29;20054;-66
2021/06/14 11:39:45;;;;;;;8.93;4.28;;;;;;;27.33;23.86;101415.50;4842476;29;20065;-70
2021/06/14 11:42:15;;;;;;;7.15;2.28;;;;;;;27.83;23.24;101404.75;4849619;29;20065;-73
2021/06/14 11:44:55;;;;;;;10.60;3.13;;;;;;;27.29;23.29;101412.69;4852660;29;20504;-68
2021/06/14 11:47:27;;;;;;;6.72;2.38;;;;;;;27.08;23.67;101409.91;4851128;29;20057;-71
2021/06/14 11:50:00;;;;;;;4.85;2.13;;;;;;;27.13;23.08;101406.66;4850621;29;20058;-70
2021/06/14 11:52:36;;;;;;;9.38;2.42;;;;;;;27.21;22.55;101404.63;4846055;29;20049;-66
2021/06/14 11:55:10;;;;;;;10.68;2.72;;;;;;;27.23;22.72;101397.31;4843294;29;20061;-65
2021/06/14 11:57:41;;;;;;;7.78;2.30;;;;;;;27.51;22.64;101390.78;4827237;29;20073;-74
2021/06/14 12:00:12;;;;;;;12.55;2.50;;;;;;;27.68;22.27;101392.69;4904517;29;20065;-74
2021/06/14 12:02:40;;;;;;;9.35;2.33;;;;;;;27.61;21.77;101392.75;4843614;29;20061;-74
2021/06/14 12:05:11;;;;;;;6.50;2.15;;;;;;;27.54;20.82;101390.75;4850447;29;20057;-72
2021/06/14 12:07:41;;;;;;;4.03;2.08;;;;;;;27.60;20.44;101383.44;4849753;29;20057;-76
2021/06/14 12:10:14;;;;;;;7.50;2.53;;;;;;;27.94;20.44;101383.66;4831975;29;20058;-77
2021/06/14 12:12:46;;;;;;;8.15;2.30;;;;;;;28.15;20.71;101365.69;4839336;29;20054;-65
2021/06/14 12:15:14;;;;;;;8.43;2.55;;;;;;;28.19;21.61;101361.59;4840752;29;20065;-69
2021/06/14 12:17:43;;;;;;;8.85;2.38;;;;;;;28.21;21.64;101366.88;4840094;29;20065;-69
2021/06/14 12:20:12;;;;;;;7.32;2.22;;;;;;;28.08;22.22;101352.41;4838249;29;20054;-73
2021/06/14 12:22:40;;;;;;;8.30;2.25;;;;;;;27.96;21.42;101361.38;4841093;29;20245;-70
2021/06/14 12:25:12;;;;;;;10.40;2.40;;;;;;;28.30;21.64;101356.63;4903251;29;20081;-71
2021/06/14 12:27:40;;;;;;;5.93;2.50;;;;;;;28.26;21.91;101357.91;4841801;29;20058;-68
2021/06/14 12:30:12;;;;;;;7.35;2.30;;;;;;;28.11;22.24;101351.53;4840782;29;20410;-66
2021/06/14 12:32:39;;;;;;;9.23;2.58;;;;;;;28.11;22.04;101354.38;4842180;29;20077;-69
2021/06/14 12:35:09;;;;;;;7.60;2.50;;;;;;;28.06;21.88;101349.16;4841522;29;20138;-69
2021/06/14 12:37:37;;;;;;;8.45;2.58;;;;;;;27.99;21.49;101337.06;4839893;29;20080;-69
2021/06/14 12:40:13;;;;;;;8.48;2.28;;;;;;;28.32;21.56;101340.03;4841018;29;20062;-68
2021/06/14 12:42:41;;;;;;;10.05;2.55;;;;;;;28.55;21.08;101333.75;4838729;29;20058;-69
2021/06/14 12:45:18;;;;;;;8.80;2.22;;;;;;;28.73;20.76;101323.81;4840943;29;20050;-69
2021/06/14 12:47:58;;;;;;;6.82;2.35;;;;;;;29.44;20.14;101315.22;4840072;29;20505;-68
2021/06/14 12:50:46;;;;;;;8.88;2.65;;;;;;;29.37;20.32;101317.38;4841475;29;20054;-67
2021/06/14 12:53:19;;;;;;;6.28;2.35;;;;;;;29.59;19.86;101324.31;4838991;29;20050;-68
2021/06/14 12:55:48;;;;;;;8.13;2.45;;;;;;;29.45;19.22;101314.00;4840898;29;20502;-66